Погода Србиновона неделю

Скопье, Македония

12 - 18 июля
  • 12июля
    Сегодня
    +17°
    +33°
    Практически безоблачно
    ВремяПогодаТемператураВлажностьДавлениеВетер, м/сВероятность осадков
    02:00Ясно и безоблачно+18°C73 %691 мм1.2 м/с2 %
    05:00Ясно и безоблачно+16°C71 %690 мм1.1 м/с2 %
    08:00Ясно и безоблачно+24°C54 %692 мм0.9 м/с2 %
    11:00Ясно и безоблачно+30°C37 %693 мм1.0 м/с2 %
    14:00Практически безоблачно+33°C29 %692 мм1.8 м/с2 %
    17:00Практически безоблачно+32°C31 %691 мм1.2 м/с2 %
    20:00Ясно и безоблачно+27°C53 %690 мм0.9 м/с2 %
    23:00Ясно и безоблачно+22°C66 %690 мм0.8 м/с2 %
  • 13июля
    Суббота
    +17°
    +35°
    Практически безоблачно
    ВремяПогодаТемператураВлажностьДавлениеВетер, м/сВероятность осадков
    02:00Ясно и безоблачно+18°C76 %689 мм0.6 м/с2 %
    05:00Ясно и безоблачно+17°C76 %688 мм0.6 м/с2 %
    08:00Ясно и безоблачно+24°C58 %690 мм0.3 м/с2 %
    11:00Ясно и безоблачно+31°C34 %691 мм0.6 м/с2 %
    14:00Практически безоблачно+34°C29 %691 мм2.1 м/с2 %
    17:00Практически безоблачно+34°C30 %691 мм2.1 м/с5 %
    20:00Практически безоблачно+28°C51 %690 мм1.0 м/с2 %
    23:00Ясно и безоблачно+23°C72 %690 мм1.1 м/с2 %
  • 14июля
    Воскресенье
    +18°
    +35°
    Практически безоблачно
    ВремяПогодаТемператураВлажностьДавлениеВетер, м/сВероятность осадков
    02:00Ясно и безоблачно+20°C76 %689 мм1.2 м/с2 %
    05:00Ясно и безоблачно+18°C72 %689 мм1.0 м/с2 %
    08:00Ясно и безоблачно+25°C54 %692 мм0.8 м/с2 %
    11:00Ясно и безоблачно+32°C33 %693 мм1.3 м/с2 %
    14:00Практически безоблачно+34°C27 %692 мм1.9 м/с5 %
    17:00Практически безоблачно+31°C43 %692 мм2.1 м/с12 %
    20:00Практически безоблачно+26°C65 %690 мм1.3 м/с5 %
    23:00Ясно и безоблачно+21°C81 %690 мм0.9 м/с2 %
  • 15июля
    Понедельник
    +17°
    +35°
    Ясно и безоблачно
    ВремяПогодаТемператураВлажностьДавлениеВетер, м/сВероятность осадков
    02:00Ясно и безоблачно+20°C73 %690 мм1.3 м/с2 %
    05:00Ясно и безоблачно+19°C68 %690 мм1.2 м/с2 %
    08:00Ясно и безоблачно+25°C51 %692 мм1.3 м/с2 %
    11:00Ясно и безоблачно+32°C29 %693 мм2.3 м/с2 %
    14:00Ясно и безоблачно+35°C23 %693 мм2.6 м/с2 %
    17:00Ясно и безоблачно+34°C23 %692 мм2.5 м/с2 %
    20:00Ясно и безоблачно+29°C43 %691 мм1.4 м/с2 %
    23:00Ясно и безоблачно+23°C54 %691 мм1.1 м/с2 %
  • 16июля
    Вторник
    +17°
    +36°
    Ясно и безоблачно
    ВремяПогодаТемператураВлажностьДавлениеВетер, м/сВероятность осадков
    02:00Ясно и безоблачно+21°C55 %691 мм1.3 м/с2 %
    05:00Ясно и безоблачно+18°C59 %690 мм1.1 м/с2 %
    08:00Ясно и безоблачно+25°C49 %692 мм0.7 м/с2 %
    11:00Ясно и безоблачно+32°C31 %693 мм1.4 м/с2 %
    14:00Ясно и безоблачно+35°C23 %693 мм2.5 м/с5 %
    17:00Практически безоблачно+35°C21 %692 мм1.7 м/с6 %
    20:00Ясно и безоблачно+29°C39 %691 мм1.0 м/с3 %
    23:00Ясно и безоблачно+23°C59 %690 мм1.0 м/с2 %
Мы используем cookies
Соглашаюсь